sensor_id;sensor_type;location;lat;lon;timestamp;P1;durP1;ratioP1;P2;durP2;ratioP2
17650;SDS011;26663;59.302;18.082;2023-09-30T00:02:47;13.30;;;8.48;;
17650;SDS011;26663;59.302;18.082;2023-09-30T00:05:51;19.52;;;8.50;;
17650;SDS011;26663;59.302;18.082;2023-09-30T00:08:55;12.30;;;7.78;;
17650;SDS011;26663;59.302;18.082;2023-09-30T00:11:59;11.73;;;8.50;;
17650;SDS011;26663;59.302;18.082;2023-09-30T00:15:03;11.18;;;8.13;;
17650;SDS011;26663;59.302;18.082;2023-09-30T00:18:09;12.35;;;7.50;;
17650;SDS011;26663;59.302;18.082;2023-09-30T00:21:13;10.38;;;7.20;;
17650;SDS011;26663;59.302;18.082;2023-09-30T00:24:17;8.55;;;7.45;;
17650;SDS011;26663;59.302;18.082;2023-09-30T00:27:22;12.48;;;7.65;;
17650;SDS011;26663;59.302;18.082;2023-09-30T00:30:26;10.73;;;7.47;;
17650;SDS011;26663;59.302;18.082;2023-09-30T00:33:31;11.07;;;6.95;;
17650;SDS011;26663;59.302;18.082;2023-09-30T00:36:35;14.23;;;7.13;;
17650;SDS011;26663;59.302;18.082;2023-09-30T00:39:39;10.95;;;7.47;;
17650;SDS011;26663;59.302;18.082;2023-09-30T00:42:43;8.63;;;7.05;;
17650;SDS011;26663;59.302;18.082;2023-09-30T00:45:47;11.82;;;6.93;;
17650;SDS011;26663;59.302;18.082;2023-09-30T00:48:53;10.00;;;6.82;;
17650;SDS011;26663;59.302;18.082;2023-09-30T00:51:59;10.07;;;6.40;;
17650;SDS011;26663;59.302;18.082;2023-09-30T00:55:04;10.32;;;6.55;;
17650;SDS011;26663;59.302;18.082;2023-09-30T00:58:09;8.02;;;6.22;;
17650;SDS011;26663;59.302;18.082;2023-09-30T01:01:13;8.40;;;5.70;;
17650;SDS011;26663;59.302;18.082;2023-09-30T01:04:19;7.38;;;6.00;;
17650;SDS011;26663;59.302;18.082;2023-09-30T01:07:24;7.20;;;5.70;;
17650;SDS011;26663;59.302;18.082;2023-09-30T01:10:27;8.30;;;5.85;;
17650;SDS011;26663;59.302;18.082;2023-09-30T01:13:32;6.00;;;5.40;;
17650;SDS011;26663;59.302;18.082;2023-09-30T01:16:36;5.32;;;4.95;;
17650;SDS011;26663;59.302;18.082;2023-09-30T01:19:42;5.25;;;4.65;;
17650;SDS011;26663;59.302;18.082;2023-09-30T01:22:47;5.40;;;4.25;;
17650;SDS011;26663;59.302;18.082;2023-09-30T01:25:51;4.15;;;3.85;;
17650;SDS011;26663;59.302;18.082;2023-09-30T01:28:54;3.90;;;3.60;;
17650;SDS011;26663;59.302;18.082;2023-09-30T01:31:58;3.33;;;3.03;;
17650;SDS011;26663;59.302;18.082;2023-09-30T01:35:03;4.13;;;2.72;;
17650;SDS011;26663;59.302;18.082;2023-09-30T01:41:31;2.50;;;2.38;;
17650;SDS011;26663;59.302;18.082;2023-09-30T01:44:34;2.97;;;2.25;;
17650;SDS011;26663;59.302;18.082;2023-09-30T01:47:38;2.00;;;2.00;;
17650;SDS011;26663;59.302;18.082;2023-09-30T01:50:42;2.00;;;2.00;;
17650;SDS011;26663;59.302;18.082;2023-09-30T01:53:48;1.52;;;1.52;;
17650;SDS011;26663;59.302;18.082;2023-09-30T01:56:52;1.88;;;1.70;;
17650;SDS011;26663;59.302;18.082;2023-09-30T01:59:55;1.77;;;1.67;;
17650;SDS011;26663;59.302;18.082;2023-09-30T02:02:59;2.05;;;1.90;;
17650;SDS011;26663;59.302;18.082;2023-09-30T02:06:04;2.10;;;2.00;;
17650;SDS011;26663;59.302;18.082;2023-09-30T02:09:09;3.97;;;1.98;;
17650;SDS011;26663;59.302;18.082;2023-09-30T02:12:13;5.35;;;2.10;;
17650;SDS011;26663;59.302;18.082;2023-09-30T02:15:18;5.37;;;2.57;;
17650;SDS011;26663;59.302;18.082;2023-09-30T02:18:22;2.75;;;2.53;;
17650;SDS011;26663;59.302;18.082;2023-09-30T02:21:26;4.05;;;2.20;;
17650;SDS011;26663;59.302;18.082;2023-09-30T02:24:32;2.28;;;2.08;;
17650;SDS011;26663;59.302;18.082;2023-09-30T02:27:36;9.40;;;2.50;;
17650;SDS011;26663;59.302;18.082;2023-09-30T02:30:39;7.13;;;2.72;;
17650;SDS011;26663;59.302;18.082;2023-09-30T02:33:43;3.08;;;2.35;;
17650;SDS011;26663;59.302;18.082;2023-09-30T02:36:47;7.15;;;2.65;;
17650;SDS011;26663;59.302;18.082;2023-09-30T02:39:52;5.28;;;2.80;;
17650;SDS011;26663;59.302;18.082;2023-09-30T02:42:56;5.43;;;2.83;;
17650;SDS011;26663;59.302;18.082;2023-09-30T02:46:00;5.40;;;2.92;;
17650;SDS011;26663;59.302;18.082;2023-09-30T02:49:04;4.25;;;2.42;;
17650;SDS011;26663;59.302;18.082;2023-09-30T02:52:26;3.88;;;2.50;;
17650;SDS011;26663;59.302;18.082;2023-09-30T02:55:32;2.15;;;2.05;;
17650;SDS011;26663;59.302;18.082;2023-09-30T02:58:36;2.58;;;2.38;;
17650;SDS011;26663;59.302;18.082;2023-09-30T03:01:40;3.58;;;2.45;;
17650;SDS011;26663;59.302;18.082;2023-09-30T03:04:44;4.53;;;2.78;;
17650;SDS011;26663;59.302;18.082;2023-09-30T03:07:49;5.68;;;2.83;;
17650;SDS011;26663;59.302;18.082;2023-09-30T03:10:55;4.03;;;2.65;;
17650;SDS011;26663;59.302;18.082;2023-09-30T03:13:59;2.60;;;2.40;;
17650;SDS011;26663;59.302;18.082;2023-09-30T03:17:02;5.43;;;2.58;;
17650;SDS011;26663;59.302;18.082;2023-09-30T03:20:07;2.95;;;2.15;;
17650;SDS011;26663;59.302;18.082;2023-09-30T03:23:13;6.07;;;2.40;;
17650;SDS011;26663;59.302;18.082;2023-09-30T03:26:19;4.55;;;2.75;;
17650;SDS011;26663;59.302;18.082;2023-09-30T03:29:22;3.63;;;2.88;;
17650;SDS011;26663;59.302;18.082;2023-09-30T03:32:26;4.20;;;2.60;;
17650;SDS011;26663;59.302;18.082;2023-09-30T03:35:31;4.38;;;2.60;;
17650;SDS011;26663;59.302;18.082;2023-09-30T03:38:35;6.10;;;2.75;;
17650;SDS011;26663;59.302;18.082;2023-09-30T03:41:41;5.60;;;2.78;;
17650;SDS011;26663;59.302;18.082;2023-09-30T03:44:44;5.30;;;2.67;;
17650;SDS011;26663;59.302;18.082;2023-09-30T03:47:51;6.43;;;2.83;;
17650;SDS011;26663;59.302;18.082;2023-09-30T03:50:54;5.63;;;3.10;;
17650;SDS011;26663;59.302;18.082;2023-09-30T03:53:58;15.20;;;3.20;;
17650;SDS011;26663;59.302;18.082;2023-09-30T03:57:06;5.97;;;3.58;;
17650;SDS011;26663;59.302;18.082;2023-09-30T04:00:11;8.35;;;3.15;;
17650;SDS011;26663;59.302;18.082;2023-09-30T04:03:18;10.23;;;3.05;;
17650;SDS011;26663;59.302;18.082;2023-09-30T04:06:23;8.95;;;3.38;;
17650;SDS011;26663;59.302;18.082;2023-09-30T04:09:26;4.95;;;3.15;;
17650;SDS011;26663;59.302;18.082;2023-09-30T04:12:32;8.23;;;3.28;;
17650;SDS011;26663;59.302;18.082;2023-09-30T04:15:35;7.57;;;3.80;;
17650;SDS011;26663;59.302;18.082;2023-09-30T04:18:39;9.15;;;3.03;;
17650;SDS011;26663;59.302;18.082;2023-09-30T04:21:43;5.57;;;3.20;;
17650;SDS011;26663;59.302;18.082;2023-09-30T04:24:47;7.10;;;3.30;;
17650;SDS011;26663;59.302;18.082;2023-09-30T04:27:56;10.07;;;3.25;;
17650;SDS011;26663;59.302;18.082;2023-09-30T04:31:00;7.47;;;3.60;;
17650;SDS011;26663;59.302;18.082;2023-09-30T04:34:05;7.57;;;3.55;;
17650;SDS011;26663;59.302;18.082;2023-09-30T04:37:09;9.85;;;3.35;;
17650;SDS011;26663;59.302;18.082;2023-09-30T04:40:13;7.72;;;3.55;;
17650;SDS011;26663;59.302;18.082;2023-09-30T04:43:24;11.10;;;3.50;;
17650;SDS011;26663;59.302;18.082;2023-09-30T04:46:31;10.50;;;3.50;;
17650;SDS011;26663;59.302;18.082;2023-09-30T04:49:35;7.07;;;2.95;;
17650;SDS011;26663;59.302;18.082;2023-09-30T04:52:39;7.40;;;3.05;;
17650;SDS011;26663;59.302;18.082;2023-09-30T04:55:43;12.02;;;3.85;;
17650;SDS011;26663;59.302;18.082;2023-09-30T04:58:48;12.13;;;3.40;;
17650;SDS011;26663;59.302;18.082;2023-09-30T05:01:52;11.90;;;3.55;;
17650;SDS011;26663;59.302;18.082;2023-09-30T05:04:56;9.57;;;3.75;;
17650;SDS011;26663;59.302;18.082;2023-09-30T05:08:01;8.70;;;3.90;;
17650;SDS011;26663;59.302;18.082;2023-09-30T05:11:04;13.63;;;3.63;;
17650;SDS011;26663;59.302;18.082;2023-09-30T05:14:09;9.75;;;3.30;;
17650;SDS011;26663;59.302;18.082;2023-09-30T05:17:13;7.47;;;3.63;;
17650;SDS011;26663;59.302;18.082;2023-09-30T05:20:18;8.98;;;3.28;;
17650;SDS011;26663;59.302;18.082;2023-09-30T05:23:22;11.90;;;3.63;;
17650;SDS011;26663;59.302;18.082;2023-09-30T05:26:26;12.63;;;3.72;;
17650;SDS011;26663;59.302;18.082;2023-09-30T05:29:31;11.98;;;3.38;;
17650;SDS011;26663;59.302;18.082;2023-09-30T05:32:35;11.18;;;3.40;;
17650;SDS011;26663;59.302;18.082;2023-09-30T05:35:40;8.57;;;3.10;;
17650;SDS011;26663;59.302;18.082;2023-09-30T05:38:44;13.07;;;4.10;;
17650;SDS011;26663;59.302;18.082;2023-09-30T05:41:49;10.73;;;3.20;;
17650;SDS011;26663;59.302;18.082;2023-09-30T05:44:54;7.18;;;3.05;;
17650;SDS011;26663;59.302;18.082;2023-09-30T05:47:58;5.72;;;2.67;;
17650;SDS011;26663;59.302;18.082;2023-09-30T05:51:05;7.88;;;3.05;;
17650;SDS011;26663;59.302;18.082;2023-09-30T05:54:09;8.20;;;3.58;;
17650;SDS011;26663;59.302;18.082;2023-09-30T05:57:14;7.85;;;3.20;;
17650;SDS011;26663;59.302;18.082;2023-09-30T06:00:19;9.52;;;3.20;;
17650;SDS011;26663;59.302;18.082;2023-09-30T06:03:31;9.13;;;3.15;;
17650;SDS011;26663;59.302;18.082;2023-09-30T06:06:36;11.40;;;3.83;;
17650;SDS011;26663;59.302;18.082;2023-09-30T06:09:40;7.43;;;2.72;;
17650;SDS011;26663;59.302;18.082;2023-09-30T06:12:45;16.48;;;3.10;;
17650;SDS011;26663;59.302;18.082;2023-09-30T06:15:51;11.63;;;3.42;;
17650;SDS011;26663;59.302;18.082;2023-09-30T06:18:54;9.40;;;3.45;;
17650;SDS011;26663;59.302;18.082;2023-09-30T06:21:59;7.28;;;3.08;;
17650;SDS011;26663;59.302;18.082;2023-09-30T06:25:05;9.80;;;3.40;;
17650;SDS011;26663;59.302;18.082;2023-09-30T06:28:10;8.15;;;3.15;;
17650;SDS011;26663;59.302;18.082;2023-09-30T06:31:17;10.25;;;3.03;;
17650;SDS011;26663;59.302;18.082;2023-09-30T06:34:21;12.55;;;3.35;;
17650;SDS011;26663;59.302;18.082;2023-09-30T06:37:25;10.57;;;3.03;;
17650;SDS011;26663;59.302;18.082;2023-09-30T06:40:28;9.68;;;3.35;;
17650;SDS011;26663;59.302;18.082;2023-09-30T06:43:32;17.27;;;3.38;;
17650;SDS011;26663;59.302;18.082;2023-09-30T06:46:38;12.30;;;3.13;;
17650;SDS011;26663;59.302;18.082;2023-09-30T06:49:45;7.82;;;2.95;;
17650;SDS011;26663;59.302;18.082;2023-09-30T06:52:48;9.20;;;3.10;;
17650;SDS011;26663;59.302;18.082;2023-09-30T06:55:52;8.25;;;2.75;;
17650;SDS011;26663;59.302;18.082;2023-09-30T06:58:56;8.63;;;2.85;;
17650;SDS011;26663;59.302;18.082;2023-09-30T07:02:03;10.02;;;2.85;;
17650;SDS011;26663;59.302;18.082;2023-09-30T07:05:07;9.32;;;2.83;;
17650;SDS011;26663;59.302;18.082;2023-09-30T07:08:11;9.05;;;2.97;;
17650;SDS011;26663;59.302;18.082;2023-09-30T07:11:15;13.95;;;3.15;;
17650;SDS011;26663;59.302;18.082;2023-09-30T07:14:19;14.18;;;2.95;;
17650;SDS011;26663;59.302;18.082;2023-09-30T07:17:24;9.13;;;3.22;;
17650;SDS011;26663;59.302;18.082;2023-09-30T07:20:28;8.40;;;2.92;;
17650;SDS011;26663;59.302;18.082;2023-09-30T07:23:35;11.63;;;3.35;;
17650;SDS011;26663;59.302;18.082;2023-09-30T07:26:39;11.88;;;2.78;;
17650;SDS011;26663;59.302;18.082;2023-09-30T07:29:43;11.30;;;2.75;;
17650;SDS011;26663;59.302;18.082;2023-09-30T07:32:48;10.95;;;3.22;;
17650;SDS011;26663;59.302;18.082;2023-09-30T07:35:52;12.73;;;3.30;;
17650;SDS011;26663;59.302;18.082;2023-09-30T07:38:58;9.68;;;3.03;;
17650;SDS011;26663;59.302;18.082;2023-09-30T07:42:03;14.93;;;3.00;;
17650;SDS011;26663;59.302;18.082;2023-09-30T07:45:07;12.35;;;3.05;;
17650;SDS011;26663;59.302;18.082;2023-09-30T07:48:14;14.30;;;3.22;;
17650;SDS011;26663;59.302;18.082;2023-09-30T07:51:18;7.53;;;2.85;;
17650;SDS011;26663;59.302;18.082;2023-09-30T07:54:22;13.75;;;3.25;;
17650;SDS011;26663;59.302;18.082;2023-09-30T07:57:32;11.45;;;3.00;;
17650;SDS011;26663;59.302;18.082;2023-09-30T08:00:36;12.02;;;2.67;;
17650;SDS011;26663;59.302;18.082;2023-09-30T08:03:42;11.98;;;3.22;;
17650;SDS011;26663;59.302;18.082;2023-09-30T08:06:46;10.20;;;2.60;;
17650;SDS011;26663;59.302;18.082;2023-09-30T08:09:50;12.23;;;3.08;;
17650;SDS011;26663;59.302;18.082;2023-09-30T08:12:54;12.52;;;3.28;;
17650;SDS011;26663;59.302;18.082;2023-09-30T08:16:00;12.82;;;2.85;;
17650;SDS011;26663;59.302;18.082;2023-09-30T08:19:05;15.38;;;3.03;;
17650;SDS011;26663;59.302;18.082;2023-09-30T08:22:09;13.52;;;2.88;;
17650;SDS011;26663;59.302;18.082;2023-09-30T08:25:13;8.65;;;2.83;;
17650;SDS011;26663;59.302;18.082;2023-09-30T08:28:17;12.02;;;3.17;;
17650;SDS011;26663;59.302;18.082;2023-09-30T08:31:21;12.25;;;3.38;;
17650;SDS011;26663;59.302;18.082;2023-09-30T08:34:27;9.43;;;3.15;;
17650;SDS011;26663;59.302;18.082;2023-09-30T08:37:31;14.77;;;2.83;;
17650;SDS011;26663;59.302;18.082;2023-09-30T08:40:35;9.85;;;3.17;;
17650;SDS011;26663;59.302;18.082;2023-09-30T08:43:39;10.38;;;3.65;;
17650;SDS011;26663;59.302;18.082;2023-09-30T08:46:44;9.02;;;3.00;;
17650;SDS011;26663;59.302;18.082;2023-09-30T08:49:49;13.18;;;2.97;;
17650;SDS011;26663;59.302;18.082;2023-09-30T08:52:58;8.70;;;3.10;;
17650;SDS011;26663;59.302;18.082;2023-09-30T08:56:03;16.30;;;3.38;;
17650;SDS011;26663;59.302;18.082;2023-09-30T08:59:11;9.05;;;3.13;;
17650;SDS011;26663;59.302;18.082;2023-09-30T09:02:16;14.85;;;2.80;;
17650;SDS011;26663;59.302;18.082;2023-09-30T09:05:21;15.00;;;3.40;;
17650;SDS011;26663;59.302;18.082;2023-09-30T09:08:26;12.98;;;3.05;;
17650;SDS011;26663;59.302;18.082;2023-09-30T09:11:36;15.35;;;3.45;;
17650;SDS011;26663;59.302;18.082;2023-09-30T09:14:40;15.10;;;3.08;;
17650;SDS011;26663;59.302;18.082;2023-09-30T09:17:45;12.70;;;3.17;;
17650;SDS011;26663;59.302;18.082;2023-09-30T09:20:51;7.30;;;2.80;;
17650;SDS011;26663;59.302;18.082;2023-09-30T09:24:11;17.50;;;3.00;;
17650;SDS011;26663;59.302;18.082;2023-09-30T09:27:30;15.45;;;3.30;;
17650;SDS011;26663;59.302;18.082;2023-09-30T09:30:37;8.50;;;3.28;;
17650;SDS011;26663;59.302;18.082;2023-09-30T09:33:43;10.05;;;2.83;;
17650;SDS011;26663;59.302;18.082;2023-09-30T09:36:48;14.95;;;3.75;;
17650;SDS011;26663;59.302;18.082;2023-09-30T09:39:52;9.30;;;2.67;;
17650;SDS011;26663;59.302;18.082;2023-09-30T09:42:58;9.68;;;2.65;;
17650;SDS011;26663;59.302;18.082;2023-09-30T09:46:04;9.32;;;2.33;;
17650;SDS011;26663;59.302;18.082;2023-09-30T09:49:11;11.07;;;3.05;;
17650;SDS011;26663;59.302;18.082;2023-09-30T09:52:16;14.77;;;2.90;;
17650;SDS011;26663;59.302;18.082;2023-09-30T09:55:22;8.40;;;2.78;;
17650;SDS011;26663;59.302;18.082;2023-09-30T09:58:27;8.68;;;2.92;;
17650;SDS011;26663;59.302;18.082;2023-09-30T10:01:33;4.97;;;2.50;;
17650;SDS011;26663;59.302;18.082;2023-09-30T10:04:37;15.80;;;3.30;;
17650;SDS011;26663;59.302;18.082;2023-09-30T10:07:44;10.73;;;3.25;;
17650;SDS011;26663;59.302;18.082;2023-09-30T10:10:51;11.18;;;2.92;;
17650;SDS011;26663;59.302;18.082;2023-09-30T10:13:55;14.45;;;2.55;;
17650;SDS011;26663;59.302;18.082;2023-09-30T10:16:59;8.68;;;2.30;;
17650;SDS011;26663;59.302;18.082;2023-09-30T10:20:04;10.95;;;2.60;;
17650;SDS011;26663;59.302;18.082;2023-09-30T10:23:24;4.53;;;2.40;;
17650;SDS011;26663;59.302;18.082;2023-09-30T10:26:29;6.07;;;2.45;;
17650;SDS011;26663;59.302;18.082;2023-09-30T10:29:39;8.45;;;2.92;;
17650;SDS011;26663;59.302;18.082;2023-09-30T10:36:12;7.18;;;2.65;;
17650;SDS011;26663;59.302;18.082;2023-09-30T10:39:52;9.63;;;2.72;;
17650;SDS011;26663;59.302;18.082;2023-09-30T10:42:58;9.80;;;2.58;;
17650;SDS011;26663;59.302;18.082;2023-09-30T10:46:04;10.98;;;2.72;;
17650;SDS011;26663;59.302;18.082;2023-09-30T10:49:32;12.23;;;3.03;;
17650;SDS011;26663;59.302;18.082;2023-09-30T10:52:37;9.90;;;2.47;;
17650;SDS011;26663;59.302;18.082;2023-09-30T10:55:43;6.47;;;2.33;;
17650;SDS011;26663;59.302;18.082;2023-09-30T10:58:48;9.20;;;2.33;;
17650;SDS011;26663;59.302;18.082;2023-09-30T11:01:52;9.48;;;2.42;;
17650;SDS011;26663;59.302;18.082;2023-09-30T11:04:57;5.85;;;2.25;;
17650;SDS011;26663;59.302;18.082;2023-09-30T11:08:02;6.63;;;2.17;;
17650;SDS011;26663;59.302;18.082;2023-09-30T11:11:07;3.55;;;2.10;;
17650;SDS011;26663;59.302;18.082;2023-09-30T11:14:21;7.03;;;2.28;;
17650;SDS011;26663;59.302;18.082;2023-09-30T11:17:30;4.75;;;2.25;;
17650;SDS011;26663;59.302;18.082;2023-09-30T11:20:34;10.18;;;2.55;;
17650;SDS011;26663;59.302;18.082;2023-09-30T11:23:39;4.78;;;2.38;;
17650;SDS011;26663;59.302;18.082;2023-09-30T11:26:45;8.18;;;2.10;;
17650;SDS011;26663;59.302;18.082;2023-09-30T11:29:49;4.20;;;2.05;;
17650;SDS011;26663;59.302;18.082;2023-09-30T11:32:58;4.40;;;1.90;;
17650;SDS011;26663;59.302;18.082;2023-09-30T11:36:03;5.85;;;1.75;;
17650;SDS011;26663;59.302;18.082;2023-09-30T11:39:08;4.35;;;2.00;;
17650;SDS011;26663;59.302;18.082;2023-09-30T11:42:15;9.77;;;2.40;;
17650;SDS011;26663;59.302;18.082;2023-09-30T11:45:22;8.60;;;2.00;;
17650;SDS011;26663;59.302;18.082;2023-09-30T11:48:27;8.40;;;2.40;;
17650;SDS011;26663;59.302;18.082;2023-09-30T11:51:42;6.43;;;2.00;;
17650;SDS011;26663;59.302;18.082;2023-09-30T11:54:48;6.70;;;2.38;;
17650;SDS011;26663;59.302;18.082;2023-09-30T11:57:53;3.58;;;1.80;;
17650;SDS011;26663;59.302;18.082;2023-09-30T12:00:58;4.82;;;1.60;;
17650;SDS011;26663;59.302;18.082;2023-09-30T12:04:03;7.18;;;1.80;;
17650;SDS011;26663;59.302;18.082;2023-09-30T12:07:07;2.28;;;1.88;;
17650;SDS011;26663;59.302;18.082;2023-09-30T12:10:11;3.83;;;1.70;;
17650;SDS011;26663;59.302;18.082;2023-09-30T12:13:18;2.15;;;1.55;;
17650;SDS011;26663;59.302;18.082;2023-09-30T12:16:23;11.25;;;1.90;;
17650;SDS011;26663;59.302;18.082;2023-09-30T12:19:27;4.60;;;1.85;;
17650;SDS011;26663;59.302;18.082;2023-09-30T12:22:31;1.65;;;1.40;;
17650;SDS011;26663;59.302;18.082;2023-09-30T12:25:35;5.18;;;1.60;;
17650;SDS011;26663;59.302;18.082;2023-09-30T12:28:41;4.22;;;1.70;;
17650;SDS011;26663;59.302;18.082;2023-09-30T12:31:46;8.82;;;2.35;;
17650;SDS011;26663;59.302;18.082;2023-09-30T12:34:55;4.35;;;1.67;;
17650;SDS011;26663;59.302;18.082;2023-09-30T12:37:59;1.40;;;1.33;;
17650;SDS011;26663;59.302;18.082;2023-09-30T12:41:02;1.42;;;1.08;;
17650;SDS011;26663;59.302;18.082;2023-09-30T12:44:08;6.55;;;1.42;;
17650;SDS011;26663;59.302;18.082;2023-09-30T12:47:12;1.67;;;1.10;;
17650;SDS011;26663;59.302;18.082;2023-09-30T12:50:16;5.03;;;1.60;;
17650;SDS011;26663;59.302;18.082;2023-09-30T12:53:19;1.70;;;1.60;;
17650;SDS011;26663;59.302;18.082;2023-09-30T12:56:23;3.80;;;1.30;;
17650;SDS011;26663;59.302;18.082;2023-09-30T12:59:28;1.63;;;1.25;;
17650;SDS011;26663;59.302;18.082;2023-09-30T13:02:33;5.30;;;1.40;;
17650;SDS011;26663;59.302;18.082;2023-09-30T13:05:36;2.50;;;1.08;;
17650;SDS011;26663;59.302;18.082;2023-09-30T13:08:44;2.50;;;1.17;;
17650;SDS011;26663;59.302;18.082;2023-09-30T13:11:47;1.50;;;0.93;;
17650;SDS011;26663;59.302;18.082;2023-09-30T13:14:53;3.20;;;1.30;;
17650;SDS011;26663;59.302;18.082;2023-09-30T13:17:58;4.10;;;1.10;;
17650;SDS011;26663;59.302;18.082;2023-09-30T13:21:02;3.20;;;1.35;;
17650;SDS011;26663;59.302;18.082;2023-09-30T13:24:08;3.88;;;1.45;;
17650;SDS011;26663;59.302;18.082;2023-09-30T13:27:12;2.58;;;1.23;;
17650;SDS011;26663;59.302;18.082;2023-09-30T13:30:19;1.38;;;1.27;;
17650;SDS011;26663;59.302;18.082;2023-09-30T13:33:24;2.30;;;1.00;;
17650;SDS011;26663;59.302;18.082;2023-09-30T13:36:28;2.90;;;1.27;;
17650;SDS011;26663;59.302;18.082;2023-09-30T13:39:32;5.45;;;1.15;;
17650;SDS011;26663;59.302;18.082;2023-09-30T13:42:37;3.72;;;1.20;;
17650;SDS011;26663;59.302;18.082;2023-09-30T13:45:42;1.27;;;1.17;;
17650;SDS011;26663;59.302;18.082;2023-09-30T13:48:46;2.35;;;1.15;;
17650;SDS011;26663;59.302;18.082;2023-09-30T13:51:54;1.30;;;1.20;;
17650;SDS011;26663;59.302;18.082;2023-09-30T13:54:58;3.13;;;1.25;;
17650;SDS011;26663;59.302;18.082;2023-09-30T13:58:02;3.53;;;1.25;;
17650;SDS011;26663;59.302;18.082;2023-09-30T14:01:08;2.53;;;1.50;;
17650;SDS011;26663;59.302;18.082;2023-09-30T14:04:13;2.35;;;1.20;;
17650;SDS011;26663;59.302;18.082;2023-09-30T14:07:18;1.38;;;1.17;;
17650;SDS011;26663;59.302;18.082;2023-09-30T14:10:22;1.27;;;1.25;;
17650;SDS011;26663;59.302;18.082;2023-09-30T14:13:26;4.30;;;1.30;;
17650;SDS011;26663;59.302;18.082;2023-09-30T14:16:31;4.68;;;1.30;;
17650;SDS011;26663;59.302;18.082;2023-09-30T14:19:36;2.47;;;1.60;;
17650;SDS011;26663;59.302;18.082;2023-09-30T14:22:40;2.97;;;1.23;;
17650;SDS011;26663;59.302;18.082;2023-09-30T14:25:45;1.33;;;1.23;;
17650;SDS011;26663;59.302;18.082;2023-09-30T14:28:49;2.78;;;1.50;;
17650;SDS011;26663;59.302;18.082;2023-09-30T14:31:54;3.13;;;1.45;;
17650;SDS011;26663;59.302;18.082;2023-09-30T14:34:58;3.50;;;1.27;;
17650;SDS011;26663;59.302;18.082;2023-09-30T14:38:03;1.98;;;1.75;;
17650;SDS011;26663;59.302;18.082;2023-09-30T14:41:07;4.65;;;1.17;;
17650;SDS011;26663;59.302;18.082;2023-09-30T14:44:12;1.48;;;1.30;;
17650;SDS011;26663;59.302;18.082;2023-09-30T14:47:17;2.38;;;1.40;;
17650;SDS011;26663;59.302;18.082;2023-09-30T14:50:21;3.22;;;1.52;;
17650;SDS011;26663;59.302;18.082;2023-09-30T14:53:25;1.85;;;1.13;;
17650;SDS011;26663;59.302;18.082;2023-09-30T14:56:29;2.10;;;1.25;;
17650;SDS011;26663;59.302;18.082;2023-09-30T14:59:33;1.70;;;1.52;;
17650;SDS011;26663;59.302;18.082;2023-09-30T15:02:38;2.88;;;1.13;;
17650;SDS011;26663;59.302;18.082;2023-09-30T15:05:42;2.50;;;1.15;;
17650;SDS011;26663;59.302;18.082;2023-09-30T15:08:46;2.70;;;1.20;;
17650;SDS011;26663;59.302;18.082;2023-09-30T15:11:50;1.08;;;1.02;;
17650;SDS011;26663;59.302;18.082;2023-09-30T15:14:54;2.80;;;1.40;;
17650;SDS011;26663;59.302;18.082;2023-09-30T15:17:59;4.55;;;1.20;;
17650;SDS011;26663;59.302;18.082;2023-09-30T15:21:03;2.67;;;1.35;;
17650;SDS011;26663;59.302;18.082;2023-09-30T15:24:07;4.10;;;1.20;;
17650;SDS011;26663;59.302;18.082;2023-09-30T15:27:13;4.80;;;2.08;;
17650;SDS011;26663;59.302;18.082;2023-09-30T15:30:16;3.05;;;1.48;;
17650;SDS011;26663;59.302;18.082;2023-09-30T15:33:21;4.28;;;1.48;;
17650;SDS011;26663;59.302;18.082;2023-09-30T15:36:26;2.33;;;1.20;;
17650;SDS011;26663;59.302;18.082;2023-09-30T15:39:30;6.20;;;1.40;;
17650;SDS011;26663;59.302;18.082;2023-09-30T15:42:40;3.05;;;1.48;;
17650;SDS011;26663;59.302;18.082;2023-09-30T15:45:44;2.53;;;1.20;;
17650;SDS011;26663;59.302;18.082;2023-09-30T15:48:49;2.72;;;1.13;;
17650;SDS011;26663;59.302;18.082;2023-09-30T15:51:53;3.53;;;1.20;;
17650;SDS011;26663;59.302;18.082;2023-09-30T15:54:57;3.33;;;1.10;;
17650;SDS011;26663;59.302;18.082;2023-09-30T15:58:03;3.55;;;1.33;;
17650;SDS011;26663;59.302;18.082;2023-09-30T16:01:10;2.55;;;1.30;;
17650;SDS011;26663;59.302;18.082;2023-09-30T16:04:16;1.35;;;1.33;;
17650;SDS011;26663;59.302;18.082;2023-09-30T16:07:20;3.55;;;1.70;;
17650;SDS011;26663;59.302;18.082;2023-09-30T16:10:25;3.22;;;1.25;;
17650;SDS011;26663;59.302;18.082;2023-09-30T16:13:30;1.63;;;1.30;;
17650;SDS011;26663;59.302;18.082;2023-09-30T16:16:34;8.05;;;1.80;;
17650;SDS011;26663;59.302;18.082;2023-09-30T16:19:39;5.55;;;1.30;;
17650;SDS011;26663;59.302;18.082;2023-09-30T16:22:43;2.25;;;1.30;;
17650;SDS011;26663;59.302;18.082;2023-09-30T16:25:47;1.42;;;1.20;;
17650;SDS011;26663;59.302;18.082;2023-09-30T16:28:51;2.35;;;1.20;;
17650;SDS011;26663;59.302;18.082;2023-09-30T16:31:55;2.75;;;1.23;;
17650;SDS011;26663;59.302;18.082;2023-09-30T16:35:00;1.98;;;1.30;;
17650;SDS011;26663;59.302;18.082;2023-09-30T16:38:05;5.65;;;1.10;;
17650;SDS011;26663;59.302;18.082;2023-09-30T16:41:08;1.63;;;1.35;;
17650;SDS011;26663;59.302;18.082;2023-09-30T16:44:12;4.13;;;1.63;;
17650;SDS011;26663;59.302;18.082;2023-09-30T16:47:16;1.33;;;1.23;;
17650;SDS011;26663;59.302;18.082;2023-09-30T16:50:21;5.97;;;1.30;;
17650;SDS011;26663;59.302;18.082;2023-09-30T16:53:25;2.20;;;1.38;;
17650;SDS011;26663;59.302;18.082;2023-09-30T16:56:29;2.83;;;1.20;;
17650;SDS011;26663;59.302;18.082;2023-09-30T16:59:33;3.35;;;1.13;;
17650;SDS011;26663;59.302;18.082;2023-09-30T17:02:37;3.55;;;1.40;;
17650;SDS011;26663;59.302;18.082;2023-09-30T17:05:42;2.33;;;1.70;;
17650;SDS011;26663;59.302;18.082;2023-09-30T17:08:46;3.13;;;1.42;;
17650;SDS011;26663;59.302;18.082;2023-09-30T17:11:49;4.15;;;1.80;;
17650;SDS011;26663;59.302;18.082;2023-09-30T17:14:53;2.13;;;1.50;;
17650;SDS011;26663;59.302;18.082;2023-09-30T17:17:58;4.43;;;1.30;;
17650;SDS011;26663;59.302;18.082;2023-09-30T17:21:03;4.47;;;1.50;;
17650;SDS011;26663;59.302;18.082;2023-09-30T17:24:07;4.47;;;1.38;;
17650;SDS011;26663;59.302;18.082;2023-09-30T17:27:11;5.30;;;1.60;;
17650;SDS011;26663;59.302;18.082;2023-09-30T17:30:15;4.13;;;1.50;;
17650;SDS011;26663;59.302;18.082;2023-09-30T17:33:39;3.70;;;1.30;;
17650;SDS011;26663;59.302;18.082;2023-09-30T17:36:45;4.32;;;1.80;;
17650;SDS011;26663;59.302;18.082;2023-09-30T17:39:50;3.40;;;1.92;;
17650;SDS011;26663;59.302;18.082;2023-09-30T17:42:54;4.72;;;1.55;;
17650;SDS011;26663;59.302;18.082;2023-09-30T17:45:58;1.40;;;1.30;;
17650;SDS011;26663;59.302;18.082;2023-09-30T17:49:02;1.42;;;1.33;;
17650;SDS011;26663;59.302;18.082;2023-09-30T17:52:07;3.45;;;1.60;;
17650;SDS011;26663;59.302;18.082;2023-09-30T17:55:11;1.20;;;1.20;;
17650;SDS011;26663;59.302;18.082;2023-09-30T17:58:16;1.80;;;1.40;;
17650;SDS011;26663;59.302;18.082;2023-09-30T18:01:20;1.55;;;1.15;;
17650;SDS011;26663;59.302;18.082;2023-09-30T18:04:25;5.28;;;1.33;;
17650;SDS011;26663;59.302;18.082;2023-09-30T18:07:30;3.17;;;1.30;;
17650;SDS011;26663;59.302;18.082;2023-09-30T18:10:35;2.03;;;1.13;;
17650;SDS011;26663;59.302;18.082;2023-09-30T18:13:39;2.47;;;1.30;;
17650;SDS011;26663;59.302;18.082;2023-09-30T18:16:43;2.53;;;1.27;;
17650;SDS011;26663;59.302;18.082;2023-09-30T18:19:47;3.25;;;1.63;;
17650;SDS011;26663;59.302;18.082;2023-09-30T18:22:54;3.85;;;1.60;;